TimeEST,TemperatureF,Dew PointF,Humidity,Sea Level PressureIn,VisibilityMPH,Wind Direction,Wind SpeedMPH,Gust SpeedMPH,PrecipitationIn,Events,Conditions,WindDirDegrees,DateUTC
12:15 AM,20.1,14.5,79,29.21,4.0,South,5.8,-,N/A,Snow,Light Snow,170,2014-01-26 05:15:00
12:35 AM,20.3,14.2,77,29.20,7.0,SW,13.8,-,N/A,Snow,Light Snow,230,2014-01-26 05:35:00
12:55 AM,21.2,13.1,71,29.21,5.0,WSW,10.4,19.6,N/A,Snow,Light Snow,250,2014-01-26 05:55:00
1:15 AM,19.4,11.8,72,29.25,1.0,WNW,12.7,27.6,N/A,Snow,Light Snow,300,2014-01-26 06:15:00
1:35 AM,14.5,6.1,69,29.28,4.0,WNW,15.0,23.0,N/A,Snow,Light Snow,290,2014-01-26 06:35:00
1:55 AM,12.6,4.8,71,29.31,4.0,WNW,13.8,19.6,N/A,Snow,Light Snow,290,2014-01-26 06:55:00
2:15 AM,10.8,0.7,64,29.33,5.0,West,15.0,20.7,N/A,,Haze,280,2014-01-26 07:15:00
2:35 AM,9.0,0.3,68,29.35,3.0,West,12.7,20.7,N/A,Snow,Light Snow,280,2014-01-26 07:35:00
2:55 AM,7.2,-3.5,62,29.38,5.0,WSW,12.7,19.6,N/A,,Haze,250,2014-01-26 07:55:00
3:15 AM,5.9,-5.3,60,29.40,7.0,WSW,11.5,16.1,N/A,,Overcast,240,2014-01-26 08:15:00
3:35 AM,5.0,-6.2,60,29.42,3.0,WSW,16.1,28.8,N/A,,Haze,250,2014-01-26 08:35:00
3:55 AM,3.2,-9.4,56,29.44,5.0,WSW,15.0,27.6,N/A,,Haze,240,2014-01-26 08:55:00
4:15 AM,1.9,-11.4,54,29.45,5.0,SW,16.1,26.5,N/A,,Haze,230,2014-01-26 09:15:00
4:35 AM,1.2,-12.6,52,29.47,3.0,WSW,17.3,32.2,N/A,,Haze,250,2014-01-26 09:35:00
4:55 AM,0.9,-13.9,50,29.49,10.0,Calm,Calm,-,N/A,,Mostly Cloudy,0,2014-01-26 09:55:00
5:15 AM,-0.4,-14.4,52,29.50,10.0,SW,11.5,24.2,N/A,,Mostly Cloudy,230,2014-01-26 10:15:00
5:35 AM,-1.3,-15.3,51,29.51,10.0,WSW,12.7,21.9,N/A,,Scattered Clouds,240,2014-01-26 10:35:00
5:55 AM,-1.7,-16.1,51,29.53,7.0,West,16.1,25.3,N/A,,Scattered Clouds,260,2014-01-26 10:55:00
6:15 AM,-2.2,-17.5,48,29.54,5.0,WSW,19.6,25.3,N/A,,Haze,240,2014-01-26 11:15:00
6:35 AM,-2.6,-17.9,48,29.55,10.0,West,9.2,20.7,N/A,,Scattered Clouds,260,2014-01-26 11:35:00
6:55 AM,-3.1,-18.4,48,29.56,10.0,WSW,13.8,18.4,N/A,,Clear,240,2014-01-26 11:55:00
7:15 AM,-3.1,-17.7,50,29.58,7.0,WSW,13.8,19.6,N/A,,Mostly Cloudy,240,2014-01-26 12:15:00
7:35 AM,-3.1,-16.8,52,29.59,7.0,WSW,13.8,24.2,N/A,,Overcast,240,2014-01-26 12:35:00
7:55 AM,-3.1,-16.8,52,29.60,10.0,WSW,15.0,-,N/A,,Overcast,240,2014-01-26 12:55:00
8:15 AM,-3.1,-16.2,54,29.61,7.0,West,10.4,18.4,N/A,,Overcast,270,2014-01-26 13:15:00
8:35 AM,-3.1,-17.0,52,29.62,10.0,WSW,9.2,-,N/A,,Scattered Clouds,240,2014-01-26 13:35:00
8:55 AM,-3.1,-17.5,50,29.62,10.0,WSW,10.4,18.4,N/A,,Clear,240,2014-01-26 13:55:00
9:15 AM,-2.4,-18.0,47,29.62,10.0,WSW,12.7,19.6,N/A,,Clear,240,2014-01-26 14:15:00
9:35 AM,-1.8,-18.0,46,29.63,7.0,WSW,15.0,21.9,N/A,,Clear,250,2014-01-26 14:35:00
9:55 AM,-1.7,-17.9,46,29.64,7.0,WSW,10.4,-,N/A,,Clear,240,2014-01-26 14:55:00
10:15 AM,-0.8,-18.0,44,29.65,10.0,WSW,11.5,16.1,N/A,,Clear,240,2014-01-26 15:15:00
10:35 AM,-0.4,-18.8,42,29.65,10.0,West,8.1,20.7,N/A,,Clear,260,2014-01-26 15:35:00
10:55 AM,-0.0,-18.9,41,29.65,10.0,WSW,12.7,16.1,N/A,,Clear,240,2014-01-26 15:55:00
11:15 AM,0.5,-19.7,38,29.64,10.0,WSW,6.9,18.4,N/A,,Clear,240,2014-01-26 16:15:00
11:35 AM,1.0,-19.5,38,29.65,10.0,WSW,11.5,16.1,N/A,,Clear,240,2014-01-26 16:35:00
11:55 AM,0.1,-20.2,38,29.66,10.0,West,10.4,-,N/A,,Scattered Clouds,260,2014-01-26 16:55:00
12:15 PM,1.4,-20.9,35,29.67,10.0,West,10.4,-,N/A,,Scattered Clouds,260,2014-01-26 17:15:00
12:35 PM,2.3,-20.9,33,29.67,10.0,West,11.5,17.3,N/A,,Clear,260,2014-01-26 17:35:00
12:55 PM,2.7,-20.0,34,29.67,10.0,WSW,12.7,18.4,N/A,,Clear,250,2014-01-26 17:55:00
1:15 PM,3.4,-18.9,35,29.67,10.0,WSW,11.5,-,N/A,,Clear,250,2014-01-26 18:15:00
1:35 PM,4.1,-18.6,34,29.66,10.0,WSW,13.8,18.4,N/A,,Clear,250,2014-01-26 18:35:00
1:55 PM,4.8,-17.3,35,29.67,10.0,WSW,12.7,18.4,N/A,,Clear,240,2014-01-26 18:55:00
2:15 PM,5.4,-16.1,37,29.68,10.0,SSW,8.1,-,N/A,,Scattered Clouds,210,2014-01-26 19:15:00
2:35 PM,6.1,-15.5,37,29.67,10.0,SW,8.1,-,N/A,,Scattered Clouds,220,2014-01-26 19:35:00
2:55 PM,6.8,-14.8,37,29.65,10.0,Calm,Calm,-,N/A,,Clear,0,2014-01-26 19:55:00
3:15 PM,7.2,-14.6,36,29.65,10.0,Calm,Calm,-,N/A,,Clear,0,2014-01-26 20:15:00
3:35 PM,7.0,-12.8,40,29.66,10.0,WSW,6.9,-,N/A,,Clear,240,2014-01-26 20:35:00
3:55 PM,7.5,-11.2,42,29.67,10.0,SW,8.1,-,N/A,,Clear,230,2014-01-26 20:55:00
4:15 PM,7.5,-11.2,42,29.68,10.0,South,4.6,-,N/A,,Clear,190,2014-01-26 21:15:00
4:35 PM,7.5,-10.7,43,29.69,10.0,SSE,3.5,-,N/A,,Clear,160,2014-01-26 21:35:00
4:55 PM,7.2,-9.9,46,29.69,10.0,Calm,Calm,-,N/A,,Scattered Clouds,0,2014-01-26 21:55:00
5:15 PM,7.2,-9.9,46,29.70,10.0,SSW,3.5,-,N/A,,Mostly Cloudy,200,2014-01-26 22:15:00
5:35 PM,6.3,-8.9,50,29.71,10.0,Calm,Calm,-,N/A,,Overcast,0,2014-01-26 22:35:00
5:55 PM,5.5,-7.6,55,29.70,10.0,SE,4.6,-,N/A,,Overcast,140,2014-01-26 22:55:00
6:15 PM,4.5,-8.0,57,29.69,10.0,ESE,3.5,-,N/A,,Overcast,120,2014-01-26 23:15:00
6:35 PM,5.7,-9.2,50,29.70,10.0,Calm,Calm,-,N/A,,Mostly Cloudy,0,2014-01-26 23:35:00
6:55 PM,5.9,-9.0,50,29.69,10.0,SE,3.5,-,N/A,,Clear,140,2014-01-26 23:55:00
7:15 PM,6.6,-8.3,50,29.70,10.0,South,4.6,-,N/A,,Mostly Cloudy,190,2014-01-27 00:15:00
7:35 PM,7.7,-8.0,49,29.69,10.0,South,5.8,-,N/A,,Overcast,170,2014-01-27 00:35:00
7:55 PM,7.9,-7.6,49,29.70,10.0,South,5.8,-,N/A,,Overcast,190,2014-01-27 00:55:00
8:15 PM,8.2,-6.9,50,29.70,10.0,South,3.5,-,N/A,,Overcast,190,2014-01-27 01:15:00
8:35 PM,9.0,-6.3,50,29.70,10.0,South,4.6,-,N/A,,Overcast,180,2014-01-27 01:35:00
8:55 PM,8.4,-4.7,55,29.70,7.0,South,4.6,-,N/A,,Overcast,190,2014-01-27 01:55:00
9:15 PM,9.5,-4.9,52,29.70,10.0,South,6.9,-,N/A,,Overcast,170,2014-01-27 02:15:00
9:35 PM,9.0,-3.8,56,29.70,10.0,SSW,4.6,-,N/A,,Overcast,200,2014-01-27 02:35:00
9:55 PM,9.5,-3.8,55,29.70,10.0,SSE,6.9,-,N/A,,Overcast,160,2014-01-27 02:55:00
10:15 PM,11.3,-2.6,54,29.70,10.0,SSE,9.2,-,N/A,,Overcast,160,2014-01-27 03:15:00
10:35 PM,11.3,-2.0,55,29.69,10.0,SE,8.1,-,N/A,,Overcast,140,2014-01-27 03:35:00
10:55 PM,11.7,-2.0,54,29.68,10.0,SSE,5.8,-,N/A,,Overcast,150,2014-01-27 03:55:00
11:15 PM,11.7,-2.2,54,29.68,10.0,SSE,6.9,-,N/A,,Overcast,150,2014-01-27 04:15:00
11:35 PM,12.0,-1.8,54,29.67,10.0,SSE,8.1,-,N/A,,Overcast,160,2014-01-27 04:35:00
11:55 PM,12.7,-1.8,52,29.67,10.0,SSE,9.2,-,N/A,,Overcast,160,2014-01-27 04:55:00